Latest Weather Observations for Esperance

IDW60801

Issued at 7:33 pm WST Wednesday 24 May 2017 (issued every 30 minutes, with the page automatically refreshed every 10 minutes)

About weather observations | Map of weather stations | Latest weather observations for WA | Other Formats
Station Details ID: 009789 Name: ESPERANCE Lat: -33.83 Lon: 121.89 Height: 25.0 m
Data from the previous 72 hours. | See also: Recent months at Esperance
Date/Time
WST
Temp
°C
App
Temp
°C
Dew
Point
°C
Rel
Hum
%
Delta-T
°C
Wind Press
QNH
hPa
Press
MSL
hPa
Rain since
9am
mm
Dir  Spd
km/h
Gust
km/h
Spd
kts
Gust
kts
24/07:30pm 14.5 13.5 11.1 80 1.8 W 7 7 4 4 1021.3 1021.2 0.0
24/07:00pm 14.8 13.5 11.4 80 1.8 W 9 11 5 6 1021.2 1021.1 0.0
24/06:30pm 15.0 14.2 11.6 80 1.8 W 7 9 4 5 1020.9 1020.8 0.0
24/06:00pm 15.9 14.6 11.2 73 2.5 WSW 9 13 5 7 1020.6 1020.5 0.0
24/05:30pm 16.3 14.7 11.5 73 2.6 WSW 11 15 6 8 1020.3 1020.2 0.0
24/05:00pm 16.7 14.7 11.5 71 2.8 WSW 13 17 7 9 1020.0 1019.9 0.0
24/04:30pm 17.4 15.4 11.5 68 3.2 WSW 13 22 7 12 1019.8 1019.7 0.0
24/04:00pm 18.0 15.6 11.4 65 3.6 WSW 15 24 8 13 1019.7 1019.6 0.0
24/03:30pm 18.5 15.2 10.9 61 4.1 WSW 19 28 10 15 1019.4 1019.3 0.0
24/03:00pm 18.9 15.7 11.4 61 4.1 WSW 19 30 10 16 1019.3 1019.2 0.0
24/02:30pm 18.7 15.5 11.4 62 4.0 WSW 19 30 10 16 1019.2 1019.1 0.0
24/02:00pm 18.4 15.4 12.1 66 3.5 WSW 19 30 10 16 1019.1 1019.0 0.0
24/01:30pm 18.5 16.6 11.8 65 3.7 WSW 13 19 7 10 1019.1 1019.0 0.0
24/01:00pm 18.0 16.2 12.0 68 3.3 SW 13 22 7 12 1019.1 1019.0 0.0
24/12:30pm 18.8 16.2 11.9 64 3.8 WNW 17 22 9 12 1019.3 1019.2 0.0
24/12:00pm 17.7 15.1 11.9 69 3.2 WNW 17 24 9 13 1019.6 1019.5 0.0
24/11:30am 17.7 15.1 11.9 69 3.2 NW 17 24 9 13 1020.1 1020.0 0.0
24/11:00am 17.0 14.9 12.3 74 2.6 WNW 15 22 8 12 1020.5 1020.4 0.0
24/10:30am 16.4 13.8 12.0 75 2.4 NW 17 22 9 12 1020.8 1020.7 0.0
24/10:00am 16.0 13.7 11.9 76 2.2 NW 15 20 8 11 1021.0 1020.9 0.0
24/09:30am 15.4 13.0 11.5 77 2.1 NW 15 20 8 11 1021.2 1021.1 0.0
24/09:00am 14.9 12.8 11.3 79 1.9 WNW 13 19 7 10 1021.0 1020.9 0.0
24/08:30am 14.6 12.1 11.0 79 1.9 NW 15 20 8 11 1021.0 1020.9 0.0
24/08:00am 14.4 12.2 10.8 79 1.9 NW 13 19 7 10 1020.9 1020.8 0.0
24/07:30am 14.1 12.3 10.7 80 1.8 WNW 11 15 6 8 1020.7 1020.6 0.0
24/07:00am 14.0 11.4 10.6 80 1.8 NW 15 20 8 11 1020.6 1020.5 0.0
24/06:30am 13.9 12.0 10.6 80 1.7 NW 11 17 6 9 1020.5 1020.4 0.0
24/06:00am 13.7 12.2 10.4 80 1.7 W 9 15 5 8 1020.3 1020.2 0.0
24/05:30am 13.5 11.2 10.4 81 1.6 NW 13 17 7 9 1020.3 1020.2 0.0
24/05:00am 13.3 10.2 10.2 81 1.6 NW 17 20 9 11 1020.2 1020.1 0.0
24/04:30am 12.9 11.6 10.0 82 1.5 WSW 7 13 4 7 1020.2 1020.1 0.0
24/04:00am 12.6 10.5 9.9 83 1.4 NW 11 17 6 9 1020.2 1020.1 0.0
24/03:30am 12.2 10.4 9.6 84 1.3 WNW 9 13 5 7 1020.4 1020.3 0.0
24/03:00am 12.4 10.2 9.4 82 1.5 NW 11 17 6 9 1020.3 1020.2 0.0
24/02:30am 11.9 10.6 9.3 84 1.3 WNW 6 9 3 5 1020.3 1020.2 0.0
24/02:00am 11.6 11.1 9.2 85 1.2 NNW 2 7 1 4 1020.2 1020.1 0.0
24/01:30am 11.9 10.1 9.3 84 1.3 N 9 15 5 8 1020.4 1020.3 0.0
24/01:00am 12.0 10.8 9.4 84 1.3 NW 6 9 3 5 1020.5 1020.4 0.0
24/12:30am 12.5 9.9 9.3 81 1.6 NNW 13 19 7 10 1020.7 1020.6 0.0
24/12:00am 12.2 8.8 9.2 82 1.5 NNW 17 20 9 11 1020.8 1020.7 0.0
 
Date/Time
WST
Temp
°C
App
Temp
°C
Dew
Point
°C
Rel
Hum
%
Delta-T
°C
Wind Press
QNH
hPa
Press
MSL
hPa
Rain since
9am
mm
Dir  Spd
km/h
Gust
km/h
Spd
kts
Gust
kts
23/11:30pm 11.9 9.3 9.3 84 1.3 NW 13 17 7 9 1020.7 1020.6 0.0
23/11:00pm 11.2 9.5 9.8 91 0.7 N 9 11 5 6 1021.0 1020.9 0.0
23/10:30pm 11.6 9.6 10.0 90 0.8 N 11 13 6 7 1021.2 1021.1 0.0
23/10:00pm 11.5 9.5 10.1 91 0.7 N 11 13 6 7 1021.3 1021.2 0.0
23/09:30pm 11.3 9.3 10.3 94 0.5 N 11 11 6 6 1021.4 1021.3 0.0
23/09:00pm 11.8 9.9 10.4 91 0.7 N 11 13 6 7 1021.5 1021.4 0.0
23/08:30pm 11.6 10.1 10.4 92 0.6 N 9 11 5 6 1021.5 1021.4 0.0
23/08:00pm 11.5 9.6 10.5 94 0.5 N 11 13 6 7 1021.4 1021.3 0.0
23/07:30pm 12.4 11.0 10.9 90 0.8 NNW 9 9 5 5 1021.4 1021.3 0.0
23/07:00pm 13.3 12.4 11.2 87 1.1 NNW 7 9 4 5 1021.3 1021.2 0.0
23/06:30pm 13.7 12.4 11.2 85 1.3 NW 9 9 5 5 1021.1 1021.0 0.0
23/06:00pm 14.2 12.9 11.4 83 1.5 NW 9 9 5 5 1020.9 1020.8 0.0
23/05:30pm 15.2 14.3 11.5 78 2.0 WNW 7 11 4 6 1020.5 1020.4 0.0
23/05:00pm 16.2 14.9 11.2 72 2.7 WSW 9 15 5 8 1020.2 1020.1 0.0
23/04:30pm 17.2 15.4 10.9 66 3.4 WSW 11 19 6 10 1020.1 1020.0 0.0
23/04:00pm 17.9 16.2 11.3 65 3.6 WSW 11 19 6 10 1020.0 1019.9 0.0
23/03:30pm 18.2 15.4 10.1 59 4.3 WSW 15 22 8 12 1019.7 1019.6 0.0
23/03:00pm 18.6 15.9 10.2 58 4.5 WSW 15 24 8 13 1019.6 1019.5 0.0
23/02:30pm 18.7 15.6 10.3 58 4.5 WSW 17 22 9 12 1019.6 1019.5 0.0
23/02:00pm 19.2 16.4 10.0 55 4.9 WSW 15 24 8 13 1019.5 1019.4 0.0
23/01:30pm 19.3 16.9 9.9 54 5.0 W 13 20 7 11 1019.6 1019.5 0.0
23/01:00pm 17.9 15.2 9.0 56 4.6 WSW 13 22 7 12 1019.7 1019.6 0.0
23/12:30pm 17.8 15.1 8.9 56 4.6 W 13 26 7 14 1020.0 1019.9 0.0
23/12:00pm 17.5 14.0 8.8 56 4.5 W 17 28 9 15 1020.3 1020.2 0.0
23/11:30am 18.4 15.4 9.4 55 4.7 W 15 24 8 13 1020.6 1020.5 0.0
23/11:00am 17.9 14.2 10.0 60 4.2 WNW 20 28 11 15 1021.1 1021.0 0.0
23/10:30am 17.2 14.0 10.0 62 3.8 WNW 17 28 9 15 1021.3 1021.2 0.0
23/10:00am 16.6 13.2 10.6 67 3.2 WNW 19 30 10 16 1021.2 1021.1 0.0
23/09:30am 15.1 11.9 10.1 72 2.6 WNW 17 24 9 13 1021.3 1021.2 0.0
23/09:00am 14.3 10.4 9.6 73 2.4 WNW 20 30 11 16 1021.1 1021.0 0.4
23/08:30am 13.0 8.6 9.0 77 2.0 NW 22 32 12 17 1020.8 1020.7 0.4
23/08:00am 11.7 7.5 8.4 80 1.6 NW 20 28 11 15 1020.7 1020.6 0.4
23/07:30am 11.0 6.8 8.1 82 1.4 NW 20 30 11 16 1020.3 1020.2 0.4
23/07:00am 10.7 6.5 8.2 84 1.2 NW 20 28 11 15 1020.1 1020.0 0.4
23/06:30am 10.7 6.4 8.0 83 1.3 NW 20 28 11 15 1019.8 1019.7 0.4
23/06:00am 10.7 6.1 8.0 83 1.3 NW 22 32 12 17 1019.5 1019.4 0.4
23/05:30am 10.8 6.7 7.7 81 1.5 NW 19 28 10 15 1019.2 1019.1 0.4
23/05:00am 10.5 6.2 7.8 83 1.3 NW 20 28 11 15 1019.1 1019.0 0.4
23/04:30am 10.7 6.5 7.6 81 1.5 NW 19 24 10 13 1018.9 1018.8 0.4
23/04:00am 10.8 6.1 7.7 81 1.5 NW 22 30 12 16 1018.8 1018.7 0.4
23/03:30am 11.2 6.1 7.7 79 1.7 NW 24 32 13 17 1018.7 1018.6 0.4
23/03:00am 10.6 6.8 7.7 82 1.4 NW 17 22 9 12 1018.9 1018.8 0.4
23/02:30am 11.2 7.0 7.5 78 1.8 NW 19 24 10 13 1018.6 1018.5 0.4
23/02:00am 11.8 7.4 7.4 74 2.1 NW 20 28 11 15 1018.2 1018.1 0.4
23/01:30am 11.9 6.7 7.1 72 2.3 NW 24 32 13 17 1018.3 1018.2 0.4
23/01:00am 11.8 7.5 7.0 72 2.3 NW 19 28 10 15 1018.4 1018.3 0.4
23/12:30am 11.7 7.8 6.9 72 2.3 NW 17 22 9 12 1018.5 1018.4 0.4
23/12:00am 12.3 7.8 7.1 70 2.5 NW 20 26 11 14 1018.5 1018.4 0.4
 
Date/Time
WST
Temp
°C
App
Temp
°C
Dew
Point
°C
Rel
Hum
%
Delta-T
°C
Wind Press
QNH
hPa
Press
MSL
hPa
Rain since
9am
mm
Dir  Spd
km/h
Gust
km/h
Spd
kts
Gust
kts
22/11:30pm 11.9 7.5 6.6 70 2.5 NW 19 22 10 12 1018.7 1018.6 0.4
22/11:00pm 11.9 8.7 6.9 71 2.4 WNW 13 17 7 9 1018.8 1018.7 0.4
22/10:30pm 12.5 8.9 6.9 68 2.7 NW 15 22 8 12 1018.9 1018.8 0.4
22/10:00pm 12.9 8.5 6.6 65 3.0 NW 19 26 10 14 1018.8 1018.7 0.4
22/09:30pm 13.4 9.0 6.5 63 3.3 NW 19 24 10 13 1018.6 1018.5 0.4
22/09:00pm 13.2 9.9 6.5 64 3.2 NW 13 20 7 11 1018.8 1018.7 0.4
22/08:30pm 13.1 10.0 7.1 67 2.9 NW 13 17 7 9 1018.8 1018.7 0.4
22/08:00pm 13.1 9.9 6.9 66 3.0 NW 13 19 7 10 1018.6 1018.5 0.4
22/07:30pm 13.0 10.3 7.5 69 2.7 NW 11 17 6 9 1018.4 1018.3 0.4
22/07:00pm 13.4 11.4 8.6 73 2.4 NNW 9 13 5 7 1018.3 1018.2 0.4
22/06:30pm 13.0 11.5 10.5 85 1.3 NW 9 13 5 7 1018.0 1017.9 0.4
22/06:00pm 13.3 11.8 10.4 82 1.5 W 9 13 5 7 1017.9 1017.8 0.4
22/05:30pm 13.3 10.9 10.0 80 1.7 WSW 13 19 7 10 1017.6 1017.5 0.4
22/05:00pm 13.4 11.5 9.0 75 2.2 WNW 9 11 5 6 1017.1 1017.0 0.4
22/04:30pm 13.7 10.9 8.7 72 2.5 W 13 20 7 11 1017.0 1016.9 0.4
22/04:00pm 13.8 10.5 9.5 75 2.2 W 17 24 9 13 1016.8 1016.7 0.4
22/03:40pm 13.0 9.9 10.3 84 1.4 W 17 26 9 14 1016.7 1016.6 0.4
22/03:30pm 12.7 9.7 10.6 87 1.1 WSW 17 24 9 13 1016.9 1016.8 0.4
22/03:28pm 12.8 9.8 10.5 86 1.2 WSW 17 28 9 15 1016.9 1016.8 0.2
22/03:00pm 14.0 10.0 8.9 71 2.6 W 20 35 11 19 1016.2 1016.1 0.2
22/02:30pm 16.2 9.9 5.8 50 5.0 W 28 44 15 24 1015.9 1015.8 0.2
22/02:00pm 15.7 9.4 5.7 51 4.8 W 28 43 15 23 1015.6 1015.5 0.2
22/01:30pm 16.2 10.4 6.4 52 4.8 WNW 26 43 14 23 1015.3 1015.3 0.2
22/01:00pm 16.0 10.3 6.9 54 4.5 W 26 39 14 21 1015.1 1015.1 0.2
22/12:30pm 15.7 10.4 7.0 56 4.3 W 24 43 13 23 1015.1 1015.1 0.2
22/12:00pm 15.6 10.3 6.8 56 4.3 WNW 24 37 13 20 1015.3 1015.3 0.2
22/11:30am 15.8 10.2 7.1 56 4.3 WNW 26 43 14 23 1015.6 1015.5 0.2
22/11:00am 15.0 9.7 6.8 58 4.0 WNW 24 39 13 21 1015.7 1015.6 0.0
22/10:30am 14.1 9.2 6.7 61 3.6 WNW 22 33 12 18 1015.8 1015.7 0.0
22/10:00am 13.5 8.6 6.9 64 3.2 WNW 22 35 12 19 1015.9 1015.8 0.0
22/09:30am 12.2 6.0 6.0 66 2.9 WNW 28 43 15 23 1015.7 1015.6 0.0
22/09:00am 11.3 5.3 5.4 67 2.7 WNW 26 39 14 21 1015.2 1015.2 -
22/08:30am 10.5 4.1 5.2 70 2.4 WNW 28 41 15 22 1015.1 1015.1 -
22/08:00am 9.6 3.1 4.7 71 2.2 WNW 28 37 15 20 1014.6 1014.6 -
22/07:30am 8.7 3.3 4.4 74 1.9 WNW 22 32 12 17 1014.3 1014.3 -
22/07:00am 8.2 - - - - WSW 28 - 15 - 1013.7 1013.7 -
22/04:00am - - - - - - - - - - 1012.1 1012.1 -
22/03:30am - - - - - - - - - - 1011.7 1011.7 -
22/03:00am - - - - - - - - - - 1011.5 1011.5 -
22/02:30am - - - - - - - - - - 1011.2 1011.2 -
22/02:00am - - - - - - - - - - 1010.9 1010.9 -
22/01:30am - - - - - - - - - - 1010.8 1010.8 -
22/01:00am - - - - - - - - - - 1010.8 1010.8 -
22/12:30am - - - - - - - - - - 1010.7 1010.7 -
22/12:00am - - - - - - - - - - 1010.4 1010.4 -
 
Date/Time
WST
Temp
°C
App
Temp
°C
Dew
Point
°C
Rel
Hum
%
Delta-T
°C
Wind Press
QNH
hPa
Press
MSL
hPa
Rain since
9am
mm
Dir  Spd
km/h
Gust
km/h
Spd
kts
Gust
kts
21/11:30pm - - - - - - - - - - 1010.2 1010.2 -
21/11:00pm - - - - - - - - - - 1010.2 1010.2 -
21/10:30pm - - - - - - - - - - 1010.1 1010.1 -
21/10:00pm - - - - - - - - - - 1009.9 1009.9 -
21/09:30pm - - - - - - - - - - 1009.8 1009.8 -
21/09:00pm - - - - - - - - - - 1009.5 1009.5 -
21/08:30pm - - - - - - - - - - 1009.3 1009.3 -
21/08:00pm - - - - - - - - - - 1008.8 1008.8 -

Other Formats:

Comma delimited format used in spreadsheet applications
http://www.bom.gov.au/fwo/IDW60801/IDW60801.94638.axf

JavaScript Object Notation format (JSON) in row-major order
http://www.bom.gov.au/fwo/IDW60801/IDW60801.94638.json